EZY21VB EGKK-LIRF
Flight info
| Callsign | EZY21VB |
|---|---|
| Flight time | 2h 0m |
| Altitude | 37000 |
| Route | SFD Y47 BENBO UL612 OGULO DCT OKASI DCT OKEKO DCT MOU DCT MADIV DCT MOKIP DCT TUFTA DCT KOGAS DCT MEDAM DCT NITAM DCT MOGBO DCT ELB/N0445F380 DCT ELKAP |
| Aircraft | A320/M-SDE3FGHIRWY/LB1 |
Departure
| Time | 2026-05-05 10:32 |
|---|---|
| Airport | London Gatwick Airport (EGKK) |
Arrival
| Time | 2026-05-05 12:32 |
|---|---|
| Airport | Rome–Fiumicino Leonardo da Vinci International Airport (LIRF) |
| Time | Latitude | Longitude | Altitude | Speed | Heading |
|---|---|---|---|---|---|
| 2026-05-05 09:39 | 51.15378 | -0.18890 | 231 ft | 0 kts | 258° |
| 2026-05-05 10:21 | 51.15378 | -0.18889 | 204 ft | 1 kts | 258° |
| 2026-05-05 10:21 | 51.15383 | -0.18856 | 216 ft | 3 kts | 252° |
| 2026-05-05 10:21 | 51.15390 | -0.18824 | 216 ft | 3 kts | 243° |
| 2026-05-05 10:22 | 51.15402 | -0.18795 | 215 ft | 3 kts | 221° |
| 2026-05-05 10:22 | 51.15418 | -0.18780 | 215 ft | 3 kts | 173° |
| 2026-05-05 10:22 | 51.15422 | -0.18781 | 215 ft | 0 kts | 167° |
| 2026-05-05 10:25 | 51.15414 | -0.18779 | 215 ft | 6 kts | 168° |
| 2026-05-05 10:25 | 51.15305 | -0.18742 | 209 ft | 17 kts | 167° |
| 2026-05-05 10:25 | 51.15196 | -0.18704 | 214 ft | 15 kts | 168° |
| 2026-05-05 10:25 | 51.15121 | -0.18798 | 205 ft | 23 kts | 258° |
| 2026-05-05 10:26 | 51.15087 | -0.19048 | 213 ft | 22 kts | 258° |
| 2026-05-05 10:26 | 51.15038 | -0.19263 | 204 ft | 18 kts | 206° |
| 2026-05-05 10:26 | 51.14951 | -0.19357 | 211 ft | 22 kts | 257° |
| 2026-05-05 10:26 | 51.14918 | -0.19597 | 206 ft | 21 kts | 258° |
| 2026-05-05 10:27 | 51.14888 | -0.19818 | 205 ft | 20 kts | 258° |
| 2026-05-05 10:27 | 51.14860 | -0.20030 | 204 ft | 19 kts | 258° |
| 2026-05-05 10:27 | 51.14833 | -0.20234 | 204 ft | 19 kts | 258° |
| 2026-05-05 10:27 | 51.14807 | -0.20424 | 207 ft | 16 kts | 257° |
| 2026-05-05 10:28 | 51.14784 | -0.20585 | 213 ft | 14 kts | 257° |
| 2026-05-05 10:28 | 51.14761 | -0.20743 | 203 ft | 15 kts | 257° |
| 2026-05-05 10:28 | 51.14740 | -0.20891 | 212 ft | 14 kts | 258° |
| 2026-05-05 10:28 | 51.14719 | -0.21045 | 204 ft | 14 kts | 257° |
| 2026-05-05 10:29 | 51.14700 | -0.21186 | 204 ft | 12 kts | 257° |
| 2026-05-05 10:29 | 51.14660 | -0.21326 | 207 ft | 15 kts | 208° |
| 2026-05-05 10:29 | 51.14622 | -0.21328 | 204 ft | 2 kts | 169° |
| 2026-05-05 10:29 | 51.14621 | -0.21328 | 204 ft | 0 kts | 169° |
| 2026-05-05 10:30 | 51.14583 | -0.21313 | 205 ft | 18 kts | 163° |
| 2026-05-05 10:30 | 51.14519 | -0.21170 | 202 ft | 10 kts | 87° |
| 2026-05-05 10:31 | 51.14526 | -0.21124 | 214 ft | 0 kts | 77° |
| 2026-05-05 10:31 | 51.14529 | -0.21100 | 209 ft | 12 kts | 77° |
| 2026-05-05 10:31 | 51.14603 | -0.20570 | 208 ft | 85 kts | 77° |
| 2026-05-05 10:31 | 51.14774 | -0.19332 | 208 ft | 142 kts | 78° |
| 2026-05-05 10:32 | 51.14994 | -0.17683 | 642 ft | 153 kts | 76° |
| 2026-05-05 10:32 | 51.15223 | -0.15993 | 1338 ft | 159 kts | 74° |
| 2026-05-05 10:32 | 51.15470 | -0.14197 | 1874 ft | 176 kts | 74° |
| 2026-05-05 10:32 | 51.15754 | -0.12173 | 2251 ft | 199 kts | 75° |
| 2026-05-05 10:33 | 51.16065 | -0.09951 | 2753 ft | 215 kts | 74° |
| 2026-05-05 10:33 | 51.16234 | -0.07567 | 3621 ft | 223 kts | 96° |
| 2026-05-05 10:33 | 51.15515 | -0.05364 | 4318 ft | 243 kts | 134° |
| 2026-05-05 10:33 | 51.13959 | -0.04026 | 4876 ft | 267 kts | 161° |
| 2026-05-05 10:34 | 51.12111 | -0.03439 | 5752 ft | 274 kts | 171° |
| 2026-05-05 10:34 | 51.10216 | -0.03084 | 6627 ft | 279 kts | 173° |
| 2026-05-05 10:34 | 51.08271 | -0.02749 | 7481 ft | 283 kts | 173° |
| 2026-05-05 10:34 | 51.06392 | -0.02293 | 8322 ft | 286 kts | 167° |
| 2026-05-05 10:35 | 51.04456 | -0.01496 | 9240 ft | 289 kts | 162° |
| 2026-05-05 10:35 | 51.02528 | -0.00542 | 10118 ft | 291 kts | 161° |
| 2026-05-05 10:35 | 51.00588 | 0.00471 | 10935 ft | 295 kts | 161° |
| 2026-05-05 10:35 | 50.98622 | 0.01488 | 11710 ft | 299 kts | 161° |
| 2026-05-05 10:36 | 50.97278 | 0.02168 | 12245 ft | 302 kts | 161° |
| 2026-05-05 10:36 | 50.95291 | 0.03151 | 13009 ft | 305 kts | 162° |
| 2026-05-05 10:36 | 50.93251 | 0.04138 | 13796 ft | 308 kts | 162° |
| 2026-05-05 10:36 | 50.91186 | 0.05116 | 14478 ft | 311 kts | 162° |
| 2026-05-05 10:37 | 50.89118 | 0.06088 | 15185 ft | 314 kts | 162° |
| 2026-05-05 10:37 | 50.87016 | 0.07074 | 15905 ft | 316 kts | 162° |
| 2026-05-05 10:37 | 50.84896 | 0.08063 | 16595 ft | 319 kts | 162° |
| 2026-05-05 10:37 | 50.82764 | 0.09054 | 17082 ft | 320 kts | 162° |
| 2026-05-05 10:38 | 50.80583 | 0.09994 | 17462 ft | 334 kts | 166° |
| 2026-05-05 10:38 | 50.78240 | 0.10759 | 17605 ft | 354 kts | 168° |
| 2026-05-05 10:38 | 50.75773 | 0.11457 | 17990 ft | 364 kts | 169° |
| 2026-05-05 10:38 | 50.73255 | 0.12119 | 18538 ft | 369 kts | 170° |
| 2026-05-05 10:39 | 50.70712 | 0.12773 | 19135 ft | 371 kts | 170° |
| 2026-05-05 10:39 | 50.68155 | 0.13437 | 19712 ft | 374 kts | 170° |
| 2026-05-05 10:39 | 50.65597 | 0.14115 | 20294 ft | 377 kts | 169° |
| 2026-05-05 10:39 | 50.63021 | 0.14816 | 20954 ft | 377 kts | 169° |
| 2026-05-05 10:40 | 50.60420 | 0.15532 | 21525 ft | 380 kts | 169° |
| 2026-05-05 10:40 | 50.57818 | 0.16251 | 22207 ft | 380 kts | 169° |
| 2026-05-05 10:40 | 50.55206 | 0.16972 | 22768 ft | 383 kts | 169° |
| 2026-05-05 10:40 | 50.52570 | 0.17702 | 23289 ft | 387 kts | 170° |
| 2026-05-05 10:41 | 50.49914 | 0.18434 | 23785 ft | 389 kts | 170° |
| 2026-05-05 10:41 | 50.47237 | 0.19168 | 24243 ft | 391 kts | 170° |
| 2026-05-05 10:41 | 50.44547 | 0.19901 | 24675 ft | 393 kts | 170° |
| 2026-05-05 10:41 | 50.41843 | 0.20636 | 25133 ft | 395 kts | 169° |
| 2026-05-05 10:42 | 50.36433 | 0.22113 | 26056 ft | 397 kts | 169° |
| 2026-05-05 10:42 | 50.33702 | 0.22864 | 26431 ft | 400 kts | 169° |
| 2026-05-05 10:42 | 50.30996 | 0.23605 | 26834 ft | 402 kts | 170° |
| 2026-05-05 10:43 | 50.28196 | 0.24367 | 27227 ft | 404 kts | 170° |
| 2026-05-05 10:43 | 50.25459 | 0.25108 | 27626 ft | 405 kts | 170° |
| 2026-05-05 10:43 | 50.22687 | 0.25941 | 28023 ft | 407 kts | 165° |
| 2026-05-05 10:43 | 50.20004 | 0.27375 | 28416 ft | 409 kts | 156° |
| 2026-05-05 10:44 | 50.17501 | 0.29479 | 28814 ft | 410 kts | 147° |
| 2026-05-05 10:44 | 50.15118 | 0.31941 | 29187 ft | 412 kts | 147° |
| 2026-05-05 10:44 | 50.12723 | 0.34409 | 29563 ft | 413 kts | 147° |
| 2026-05-05 10:44 | 50.10337 | 0.36857 | 29893 ft | 415 kts | 147° |
| 2026-05-05 10:45 | 50.07921 | 0.39330 | 30194 ft | 416 kts | 148° |
| 2026-05-05 10:45 | 50.05495 | 0.41811 | 30454 ft | 418 kts | 148° |
| 2026-05-05 10:45 | 50.03058 | 0.44307 | 30705 ft | 420 kts | 148° |
| 2026-05-05 10:45 | 50.00610 | 0.46811 | 30914 ft | 423 kts | 148° |
| 2026-05-05 10:46 | 49.98140 | 0.49330 | 31120 ft | 426 kts | 148° |
| 2026-05-05 10:46 | 49.95659 | 0.51858 | 31353 ft | 427 kts | 148° |
| 2026-05-05 10:46 | 49.93176 | 0.54384 | 31702 ft | 426 kts | 148° |
| 2026-05-05 10:46 | 49.90704 | 0.56893 | 32062 ft | 424 kts | 148° |
| 2026-05-05 10:47 | 49.88236 | 0.59390 | 32412 ft | 423 kts | 149° |
| 2026-05-05 10:47 | 49.85817 | 0.61871 | 32746 ft | 423 kts | 146° |
| 2026-05-05 10:47 | 49.83511 | 0.64705 | 33079 ft | 423 kts | 143° |
| 2026-05-05 10:47 | 49.81251 | 0.67568 | 33427 ft | 422 kts | 143° |
| 2026-05-05 10:48 | 49.78978 | 0.70441 | 33771 ft | 421 kts | 143° |
| 2026-05-05 10:48 | 49.76708 | 0.73296 | 34080 ft | 420 kts | 144° |
| 2026-05-05 10:48 | 49.74437 | 0.76142 | 34346 ft | 421 kts | 144° |
| 2026-05-05 10:48 | 49.72163 | 0.78993 | 34596 ft | 421 kts | 143° |
| 2026-05-05 10:49 | 49.69888 | 0.81841 | 34824 ft | 421 kts | 143° |
| 2026-05-05 10:49 | 49.67608 | 0.84690 | 35037 ft | 422 kts | 143° |
| 2026-05-05 10:49 | 49.65323 | 0.87544 | 35245 ft | 423 kts | 143° |
| 2026-05-05 10:49 | 49.63034 | 0.90400 | 35437 ft | 424 kts | 143° |
| 2026-05-05 10:50 | 49.60739 | 0.93262 | 35634 ft | 425 kts | 143° |
| 2026-05-05 10:50 | 49.58440 | 0.96124 | 35830 ft | 425 kts | 143° |
| 2026-05-05 10:50 | 49.56152 | 0.98969 | 36041 ft | 426 kts | 143° |
| 2026-05-05 10:50 | 49.53844 | 1.01833 | 36228 ft | 427 kts | 143° |
| 2026-05-05 10:51 | 49.51531 | 1.04702 | 36420 ft | 427 kts | 143° |
| 2026-05-05 10:51 | 49.49221 | 1.07572 | 36633 ft | 427 kts | 143° |
| 2026-05-05 10:51 | 49.46911 | 1.10438 | 36846 ft | 427 kts | 143° |
| 2026-05-05 10:52 | 49.42283 | 1.16145 | 36913 ft | 426 kts | 143° |
| 2026-05-05 10:52 | 49.37667 | 1.21831 | 36918 ft | 425 kts | 143° |
| 2026-05-05 10:53 | 49.33056 | 1.27505 | 36914 ft | 425 kts | 143° |
| 2026-05-05 10:53 | 49.28472 | 1.33127 | 36920 ft | 425 kts | 143° |
| 2026-05-05 10:54 | 49.23856 | 1.38777 | 36911 ft | 425 kts | 143° |
| 2026-05-05 10:54 | 49.19231 | 1.44422 | 36895 ft | 425 kts | 143° |
| 2026-05-05 10:55 | 49.14602 | 1.50060 | 36896 ft | 425 kts | 143° |
| 2026-05-05 10:55 | 49.09968 | 1.55677 | 36898 ft | 425 kts | 143° |
| 2026-05-05 10:56 | 49.05349 | 1.61272 | 36909 ft | 425 kts | 142° |
| 2026-05-05 10:56 | 49.00719 | 1.66869 | 36902 ft | 425 kts | 143° |
| 2026-05-05 10:57 | 48.96086 | 1.72447 | 36899 ft | 424 kts | 143° |
| 2026-05-05 10:57 | 48.91449 | 1.78008 | 36875 ft | 424 kts | 143° |
| 2026-05-05 10:58 | 48.86818 | 1.83570 | 36877 ft | 424 kts | 143° |
| 2026-05-05 10:58 | 48.82206 | 1.89107 | 36878 ft | 424 kts | 143° |
| 2026-05-05 10:59 | 48.77569 | 1.94652 | 36878 ft | 424 kts | 143° |
| 2026-05-05 10:59 | 48.72927 | 2.00171 | 36881 ft | 425 kts | 143° |
| 2026-05-05 11:00 | 48.68275 | 2.05684 | 36877 ft | 424 kts | 143° |
| 2026-05-05 11:00 | 48.63653 | 2.11164 | 36877 ft | 424 kts | 143° |
| 2026-05-05 11:01 | 48.59038 | 2.16627 | 36866 ft | 424 kts | 143° |
| 2026-05-05 11:01 | 48.54658 | 2.22554 | 36857 ft | 426 kts | 136° |
| 2026-05-05 11:02 | 48.50482 | 2.28900 | 36846 ft | 426 kts | 136° |
| 2026-05-05 11:02 | 48.46295 | 2.35223 | 36849 ft | 426 kts | 136° |
| 2026-05-05 11:03 | 48.42102 | 2.41554 | 36855 ft | 427 kts | 136° |
| 2026-05-05 11:03 | 48.37906 | 2.47880 | 36847 ft | 427 kts | 136° |
| 2026-05-05 11:04 | 48.33720 | 2.54185 | 36839 ft | 428 kts | 136° |
| 2026-05-05 11:04 | 48.29484 | 2.60460 | 36822 ft | 427 kts | 141° |
| 2026-05-05 11:05 | 48.24471 | 2.65119 | 36826 ft | 425 kts | 156° |
| 2026-05-05 11:05 | 48.19121 | 2.68883 | 36829 ft | 425 kts | 154° |
| 2026-05-05 11:06 | 48.13918 | 2.73100 | 36829 ft | 426 kts | 152° |
| 2026-05-05 11:06 | 48.08796 | 2.77376 | 36829 ft | 426 kts | 154° |
| 2026-05-05 11:07 | 48.03390 | 2.80974 | 36834 ft | 426 kts | 158° |
| 2026-05-05 11:07 | 47.97935 | 2.84420 | 36838 ft | 426 kts | 158° |
| 2026-05-05 11:08 | 47.92476 | 2.87866 | 36839 ft | 426 kts | 158° |
| 2026-05-05 11:08 | 47.87017 | 2.91329 | 36839 ft | 426 kts | 158° |
| 2026-05-05 11:09 | 47.81548 | 2.94781 | 36846 ft | 427 kts | 158° |
| 2026-05-05 11:09 | 47.76097 | 2.98217 | 36843 ft | 426 kts | 159° |
| 2026-05-05 11:10 | 47.70648 | 3.01652 | 36847 ft | 425 kts | 159° |
| 2026-05-05 11:10 | 47.65202 | 3.05065 | 36851 ft | 425 kts | 159° |
| 2026-05-05 11:11 | 47.59759 | 3.08466 | 36849 ft | 424 kts | 159° |
| 2026-05-05 11:11 | 47.54316 | 3.11867 | 36854 ft | 424 kts | 159° |
| 2026-05-05 11:12 | 47.48897 | 3.15256 | 36856 ft | 424 kts | 159° |
| 2026-05-05 11:12 | 47.43455 | 3.18647 | 36858 ft | 424 kts | 159° |
| 2026-05-05 11:13 | 47.38047 | 3.21991 | 36860 ft | 424 kts | 159° |
| 2026-05-05 11:13 | 47.32604 | 3.25361 | 36855 ft | 424 kts | 159° |
| 2026-05-05 11:14 | 47.27155 | 3.28725 | 36854 ft | 425 kts | 159° |
| 2026-05-05 11:14 | 47.21703 | 3.32075 | 36844 ft | 425 kts | 159° |
| 2026-05-05 11:15 | 47.16278 | 3.35410 | 36863 ft | 424 kts | 159° |
| 2026-05-05 11:15 | 47.10826 | 3.38759 | 36872 ft | 425 kts | 159° |
| 2026-05-05 11:16 | 47.05368 | 3.42101 | 36876 ft | 424 kts | 159° |
| 2026-05-05 11:16 | 46.99915 | 3.45421 | 36872 ft | 424 kts | 159° |
| 2026-05-05 11:17 | 46.94480 | 3.48743 | 36867 ft | 423 kts | 159° |
| 2026-05-05 11:17 | 46.89062 | 3.52047 | 36868 ft | 424 kts | 160° |
| 2026-05-05 11:18 | 46.83617 | 3.55354 | 36860 ft | 424 kts | 160° |
| 2026-05-05 11:18 | 46.78161 | 3.58648 | 36868 ft | 424 kts | 160° |
| 2026-05-05 11:19 | 46.73145 | 3.63078 | 36866 ft | 430 kts | 139° |
| 2026-05-05 11:19 | 46.71162 | 3.66364 | 36860 ft | 435 kts | 127° |
| 2026-05-05 11:19 | 46.69683 | 3.70219 | 36860 ft | 439 kts | 115° |
| 2026-05-05 11:20 | 46.68026 | 3.78844 | 36861 ft | 444 kts | 107° |
| 2026-05-05 11:20 | 46.66551 | 3.87540 | 36867 ft | 445 kts | 107° |
| 2026-05-05 11:21 | 46.65050 | 3.96282 | 36867 ft | 445 kts | 107° |
| 2026-05-05 11:21 | 46.63534 | 4.05023 | 36848 ft | 446 kts | 108° |
| 2026-05-05 11:22 | 46.62011 | 4.13768 | 36849 ft | 446 kts | 108° |
| 2026-05-05 11:22 | 46.60481 | 4.22515 | 36782 ft | 446 kts | 108° |
| 2026-05-05 11:23 | 46.58950 | 4.31225 | 36864 ft | 447 kts | 108° |
| 2026-05-05 11:23 | 46.57405 | 4.39976 | 36883 ft | 447 kts | 108° |
| 2026-05-05 11:24 | 46.55857 | 4.48718 | 36888 ft | 446 kts | 108° |
| 2026-05-05 11:24 | 46.54304 | 4.57446 | 36890 ft | 446 kts | 108° |
| 2026-05-05 11:25 | 46.52739 | 4.66160 | 36889 ft | 446 kts | 108° |
| 2026-05-05 11:25 | 46.51176 | 4.74838 | 36892 ft | 446 kts | 108° |
| 2026-05-05 11:26 | 46.49604 | 4.83548 | 36877 ft | 446 kts | 108° |
| 2026-05-05 11:26 | 46.48020 | 4.92250 | 36879 ft | 446 kts | 108° |
| 2026-05-05 11:27 | 46.46695 | 4.99488 | 36886 ft | 447 kts | 108° |
| 2026-05-05 11:27 | 46.45094 | 5.08198 | 36886 ft | 448 kts | 109° |
| 2026-05-05 11:28 | 46.43237 | 5.18316 | 36876 ft | 448 kts | 109° |
| 2026-05-05 11:28 | 46.41882 | 5.25641 | 36869 ft | 450 kts | 109° |
| 2026-05-05 11:29 | 46.40259 | 5.34389 | 36873 ft | 450 kts | 109° |
| 2026-05-05 11:29 | 46.38026 | 5.42747 | 36876 ft | 441 kts | 125° |
| 2026-05-05 11:30 | 46.34338 | 5.49717 | 36889 ft | 435 kts | 135° |
| 2026-05-05 11:30 | 46.30419 | 5.56330 | 36888 ft | 436 kts | 134° |
| 2026-05-05 11:31 | 46.26499 | 5.62969 | 36874 ft | 436 kts | 135° |
| 2026-05-05 11:31 | 46.22527 | 5.69675 | 36888 ft | 437 kts | 135° |
| 2026-05-05 11:32 | 46.18596 | 5.76297 | 36903 ft | 438 kts | 135° |
| 2026-05-05 11:32 | 46.14628 | 5.82966 | 36914 ft | 439 kts | 135° |
| 2026-05-05 11:33 | 46.10647 | 5.89644 | 36923 ft | 439 kts | 135° |
| 2026-05-05 11:33 | 46.06665 | 5.96283 | 36914 ft | 440 kts | 135° |
| 2026-05-05 11:34 | 46.02665 | 6.02947 | 36920 ft | 440 kts | 135° |
| 2026-05-05 11:34 | 45.98665 | 6.09607 | 36916 ft | 440 kts | 136° |
| 2026-05-05 11:35 | 45.94655 | 6.16269 | 36930 ft | 441 kts | 136° |
| 2026-05-05 11:35 | 45.90635 | 6.22922 | 36931 ft | 441 kts | 136° |
| 2026-05-05 11:36 | 45.86627 | 6.29534 | 36925 ft | 441 kts | 136° |
| 2026-05-05 11:36 | 45.82587 | 6.36179 | 36923 ft | 442 kts | 136° |
| 2026-05-05 11:37 | 45.78060 | 6.41919 | 36922 ft | 431 kts | 150° |
| 2026-05-05 11:37 | 45.73167 | 6.46892 | 36931 ft | 431 kts | 150° |
| 2026-05-05 11:38 | 45.68281 | 6.51865 | 36926 ft | 431 kts | 150° |
| 2026-05-05 11:38 | 45.63393 | 6.56818 | 36929 ft | 430 kts | 150° |
| 2026-05-05 11:39 | 45.58510 | 6.61763 | 36945 ft | 431 kts | 150° |
| 2026-05-05 11:39 | 45.53657 | 6.66684 | 36922 ft | 430 kts | 151° |
| 2026-05-05 11:40 | 45.48777 | 6.71610 | 36957 ft | 429 kts | 151° |
| 2026-05-05 11:40 | 45.43906 | 6.76516 | 36961 ft | 427 kts | 152° |
| 2026-05-05 11:41 | 45.39071 | 6.81372 | 36970 ft | 428 kts | 151° |
| 2026-05-05 11:41 | 45.34197 | 6.86243 | 36968 ft | 428 kts | 152° |
| 2026-05-05 11:42 | 45.29323 | 6.91108 | 36986 ft | 428 kts | 151° |
| 2026-05-05 11:42 | 45.24659 | 6.96441 | 36968 ft | 437 kts | 143° |
| 2026-05-05 11:43 | 45.20308 | 7.02468 | 36975 ft | 438 kts | 143° |
| 2026-05-05 11:43 | 45.15959 | 7.08449 | 36952 ft | 437 kts | 143° |
| 2026-05-05 11:44 | 45.11594 | 7.14429 | 36968 ft | 438 kts | 141° |
| 2026-05-05 11:44 | 45.07827 | 7.21341 | 36978 ft | 446 kts | 132° |
| 2026-05-05 11:45 | 45.04268 | 7.28532 | 36972 ft | 446 kts | 132° |
| 2026-05-05 11:45 | 45.00711 | 7.35702 | 36976 ft | 445 kts | 132° |
| 2026-05-05 11:46 | 44.96930 | 7.42549 | 36992 ft | 436 kts | 142° |
| 2026-05-05 11:46 | 44.92643 | 7.48534 | 36975 ft | 436 kts | 142° |
| 2026-05-05 11:47 | 44.88333 | 7.54556 | 36983 ft | 436 kts | 142° |
| 2026-05-05 11:47 | 44.84017 | 7.60575 | 36994 ft | 437 kts | 142° |
| 2026-05-05 11:48 | 44.77527 | 7.69606 | 36994 ft | 438 kts | 142° |
| 2026-05-05 11:48 | 44.73199 | 7.75602 | 36986 ft | 439 kts | 142° |
| 2026-05-05 11:49 | 44.68840 | 7.81617 | 36992 ft | 439 kts | 142° |
| 2026-05-05 11:49 | 44.64479 | 7.87634 | 37002 ft | 440 kts | 142° |
| 2026-05-05 11:50 | 44.60121 | 7.93651 | 37008 ft | 439 kts | 142° |
| 2026-05-05 11:50 | 44.55762 | 7.99655 | 36974 ft | 439 kts | 142° |
| 2026-05-05 11:51 | 44.51409 | 8.05628 | 36978 ft | 440 kts | 142° |
| 2026-05-05 11:51 | 44.47037 | 8.11614 | 36978 ft | 440 kts | 142° |
| 2026-05-05 11:52 | 44.42654 | 8.17592 | 36983 ft | 440 kts | 142° |
| 2026-05-05 11:52 | 44.38262 | 8.23566 | 36981 ft | 440 kts | 142° |
| 2026-05-05 11:53 | 44.33872 | 8.29538 | 36985 ft | 440 kts | 142° |
| 2026-05-05 11:53 | 44.29506 | 8.35458 | 36957 ft | 441 kts | 142° |
| 2026-05-05 11:54 | 44.25094 | 8.41434 | 36958 ft | 441 kts | 143° |
| 2026-05-05 11:54 | 44.20727 | 8.47343 | 36970 ft | 441 kts | 142° |
| 2026-05-05 11:55 | 44.16316 | 8.53281 | 36976 ft | 441 kts | 143° |
| 2026-05-05 11:55 | 44.11901 | 8.59205 | 36977 ft | 441 kts | 143° |
| 2026-05-05 11:56 | 44.07487 | 8.65140 | 36955 ft | 441 kts | 142° |
| 2026-05-05 11:56 | 44.03093 | 8.71035 | 36969 ft | 442 kts | 142° |
| 2026-05-05 11:57 | 43.98658 | 8.76947 | 36964 ft | 442 kts | 143° |
| 2026-05-05 11:57 | 43.94216 | 8.82861 | 36972 ft | 443 kts | 143° |
| 2026-05-05 11:58 | 43.89771 | 8.88778 | 36978 ft | 443 kts | 143° |
| 2026-05-05 11:58 | 43.85324 | 8.94676 | 36957 ft | 443 kts | 142° |
| 2026-05-05 11:59 | 43.80890 | 9.00555 | 36964 ft | 443 kts | 142° |
| 2026-05-05 11:59 | 43.76438 | 9.06452 | 36970 ft | 443 kts | 142° |
| 2026-05-05 12:00 | 43.71972 | 9.12326 | 36958 ft | 443 kts | 143° |
| 2026-05-05 12:00 | 43.67504 | 9.18192 | 36966 ft | 443 kts | 143° |
| 2026-05-05 12:01 | 43.63029 | 9.24062 | 36963 ft | 444 kts | 143° |
| 2026-05-05 12:01 | 43.58572 | 9.29905 | 36968 ft | 444 kts | 143° |
| 2026-05-05 12:02 | 43.54090 | 9.35770 | 36973 ft | 444 kts | 143° |
| 2026-05-05 12:02 | 43.49597 | 9.41617 | 36978 ft | 444 kts | 143° |
| 2026-05-05 12:03 | 43.45102 | 9.47456 | 36957 ft | 445 kts | 143° |
| 2026-05-05 12:03 | 43.40586 | 9.53330 | 36992 ft | 449 kts | 143° |
| 2026-05-05 12:04 | 43.36055 | 9.59219 | 36993 ft | 450 kts | 143° |
| 2026-05-05 12:04 | 43.31494 | 9.65112 | 36996 ft | 450 kts | 143° |
| 2026-05-05 12:05 | 43.26964 | 9.70961 | 36999 ft | 450 kts | 143° |
| 2026-05-05 12:05 | 43.22398 | 9.76844 | 37001 ft | 450 kts | 143° |
| 2026-05-05 12:06 | 43.17828 | 9.82707 | 36989 ft | 450 kts | 143° |
| 2026-05-05 12:06 | 43.13252 | 9.88568 | 36965 ft | 450 kts | 143° |
| 2026-05-05 12:07 | 43.08699 | 9.94410 | 36982 ft | 451 kts | 143° |
| 2026-05-05 12:07 | 43.04120 | 10.00261 | 36980 ft | 450 kts | 143° |
| 2026-05-05 12:08 | 42.99534 | 10.06095 | 36984 ft | 450 kts | 143° |
| 2026-05-05 12:08 | 42.94939 | 10.11918 | 36968 ft | 451 kts | 143° |
| 2026-05-05 12:09 | 42.90338 | 10.17749 | 36974 ft | 452 kts | 143° |
| 2026-05-05 12:09 | 42.85760 | 10.23564 | 36965 ft | 452 kts | 143° |
| 2026-05-05 12:10 | 42.81148 | 10.29406 | 36970 ft | 453 kts | 143° |
| 2026-05-05 12:10 | 42.76620 | 10.35433 | 36015 ft | 466 kts | 134° |
| 2026-05-05 12:11 | 42.74803 | 10.39139 | 35210 ft | 475 kts | 123° |
| 2026-05-05 12:11 | 42.73486 | 10.43322 | 34169 ft | 489 kts | 111° |
| 2026-05-05 12:11 | 42.72788 | 10.47894 | 33201 ft | 498 kts | 98° |
| 2026-05-05 12:11 | 42.72596 | 10.52536 | 32458 ft | 497 kts | 95° |
| 2026-05-05 12:12 | 42.72426 | 10.57214 | 31808 ft | 493 kts | 96° |
| 2026-05-05 12:12 | 42.71988 | 10.61792 | 31234 ft | 484 kts | 106° |
| 2026-05-05 12:12 | 42.70990 | 10.66102 | 30721 ft | 472 kts | 117° |
| 2026-05-05 12:12 | 42.69536 | 10.69991 | 30546 ft | 453 kts | 126° |
| 2026-05-05 12:13 | 42.67899 | 10.73597 | 30178 ft | 445 kts | 127° |
| 2026-05-05 12:13 | 42.66281 | 10.77153 | 29660 ft | 440 kts | 126° |
| 2026-05-05 12:13 | 42.64675 | 10.80677 | 29116 ft | 436 kts | 127° |
| 2026-05-05 12:13 | 42.63082 | 10.84156 | 28588 ft | 433 kts | 127° |
| 2026-05-05 12:14 | 42.61493 | 10.87611 | 28088 ft | 429 kts | 127° |
| 2026-05-05 12:14 | 42.59915 | 10.91032 | 27606 ft | 426 kts | 127° |
| 2026-05-05 12:14 | 42.58367 | 10.94446 | 27136 ft | 423 kts | 125° |
| 2026-05-05 12:14 | 42.56885 | 10.97884 | 26648 ft | 421 kts | 124° |
| 2026-05-05 12:15 | 42.55934 | 11.00165 | 26331 ft | 419 kts | 123° |
| 2026-05-05 12:15 | 42.54534 | 11.03577 | 25777 ft | 413 kts | 123° |
| 2026-05-05 12:15 | 42.53152 | 11.06966 | 24953 ft | 408 kts | 123° |
| 2026-05-05 12:15 | 42.51780 | 11.10312 | 24158 ft | 404 kts | 123° |
| 2026-05-05 12:16 | 42.50414 | 11.13606 | 23344 ft | 399 kts | 123° |
| 2026-05-05 12:16 | 42.49054 | 11.16854 | 22464 ft | 394 kts | 123° |
| 2026-05-05 12:16 | 42.47708 | 11.20048 | 21646 ft | 388 kts | 123° |
| 2026-05-05 12:16 | 42.46378 | 11.23199 | 20853 ft | 382 kts | 123° |
| 2026-05-05 12:17 | 42.45068 | 11.26304 | 20088 ft | 377 kts | 123° |
| 2026-05-05 12:17 | 42.43776 | 11.29368 | 19357 ft | 372 kts | 123° |
| 2026-05-05 12:17 | 42.42501 | 11.32390 | 18642 ft | 367 kts | 123° |
| 2026-05-05 12:17 | 42.41241 | 11.35365 | 17888 ft | 362 kts | 123° |
| 2026-05-05 12:18 | 42.40008 | 11.38275 | 17121 ft | 357 kts | 123° |
| 2026-05-05 12:18 | 42.38795 | 11.41140 | 16374 ft | 353 kts | 123° |
| 2026-05-05 12:18 | 42.37566 | 11.44039 | 15649 ft | 349 kts | 123° |
| 2026-05-05 12:18 | 42.36366 | 11.46864 | 15000 ft | 343 kts | 123° |
| 2026-05-05 12:19 | 42.35197 | 11.49616 | 14571 ft | 332 kts | 123° |
| 2026-05-05 12:19 | 42.34076 | 11.52257 | 14162 ft | 323 kts | 124° |
| 2026-05-05 12:19 | 42.32975 | 11.54845 | 13751 ft | 313 kts | 124° |
| 2026-05-05 12:19 | 42.31901 | 11.57362 | 13346 ft | 308 kts | 124° |
| 2026-05-05 12:20 | 42.30825 | 11.59879 | 12954 ft | 310 kts | 124° |
| 2026-05-05 12:20 | 42.29746 | 11.62399 | 12562 ft | 310 kts | 124° |
| 2026-05-05 12:20 | 42.28677 | 11.64897 | 12168 ft | 310 kts | 124° |
| 2026-05-05 12:20 | 42.27596 | 11.67422 | 11765 ft | 311 kts | 124° |
| 2026-05-05 12:21 | 42.26514 | 11.69945 | 11354 ft | 311 kts | 124° |
| 2026-05-05 12:21 | 42.25432 | 11.72470 | 10942 ft | 311 kts | 124° |
| 2026-05-05 12:21 | 42.24349 | 11.75003 | 10526 ft | 312 kts | 124° |
| 2026-05-05 12:21 | 42.23259 | 11.77549 | 10109 ft | 315 kts | 124° |
| 2026-05-05 12:22 | 42.22163 | 11.80106 | 9868 ft | 311 kts | 124° |
| 2026-05-05 12:22 | 42.21085 | 11.82619 | 9562 ft | 308 kts | 124° |
| 2026-05-05 12:22 | 42.20018 | 11.85099 | 9248 ft | 304 kts | 124° |
| 2026-05-05 12:22 | 42.18960 | 11.87548 | 8940 ft | 301 kts | 124° |
| 2026-05-05 12:23 | 42.17920 | 11.89956 | 8636 ft | 298 kts | 124° |
| 2026-05-05 12:23 | 42.16881 | 11.92354 | 8335 ft | 294 kts | 124° |
| 2026-05-05 12:23 | 42.15865 | 11.94703 | 7991 ft | 284 kts | 124° |
| 2026-05-05 12:23 | 42.14898 | 11.96945 | 7649 ft | 270 kts | 124° |
| 2026-05-05 12:24 | 42.13974 | 11.99085 | 7304 ft | 260 kts | 124° |
| 2026-05-05 12:24 | 42.13070 | 12.01173 | 6962 ft | 257 kts | 124° |
| 2026-05-05 12:24 | 42.12174 | 12.03236 | 6629 ft | 253 kts | 125° |
| 2026-05-05 12:24 | 42.11131 | 12.05063 | 6280 ft | 239 kts | 137° |
| 2026-05-05 12:25 | 42.10021 | 12.06680 | 5921 ft | 231 kts | 136° |
| 2026-05-05 12:25 | 42.08950 | 12.08247 | 5574 ft | 224 kts | 139° |
| 2026-05-05 12:25 | 42.07912 | 12.09764 | 5227 ft | 220 kts | 139° |
| 2026-05-05 12:25 | 42.06898 | 12.11245 | 4886 ft | 217 kts | 137° |
| 2026-05-05 12:26 | 42.05870 | 12.12747 | 4525 ft | 214 kts | 137° |
| 2026-05-05 12:26 | 42.04868 | 12.14214 | 4190 ft | 211 kts | 139° |
| 2026-05-05 12:26 | 42.03885 | 12.15653 | 3897 ft | 207 kts | 137° |
| 2026-05-05 12:26 | 42.02938 | 12.17041 | 3654 ft | 200 kts | 137° |
| 2026-05-05 12:27 | 42.02000 | 12.18396 | 3434 ft | 192 kts | 142° |
| 2026-05-05 12:27 | 42.00892 | 12.19303 | 3299 ft | 185 kts | 164° |
| 2026-05-05 12:27 | 41.99657 | 12.19827 | 3102 ft | 193 kts | 165° |
| 2026-05-05 12:27 | 41.98366 | 12.20366 | 2850 ft | 192 kts | 165° |
| 2026-05-05 12:28 | 41.97120 | 12.20891 | 2601 ft | 184 kts | 165° |
| 2026-05-05 12:28 | 41.95936 | 12.21389 | 2366 ft | 174 kts | 165° |
| 2026-05-05 12:28 | 41.94846 | 12.21848 | 2181 ft | 156 kts | 166° |
| 2026-05-05 12:28 | 41.93840 | 12.22271 | 1971 ft | 149 kts | 165° |
| 2026-05-05 12:29 | 41.92867 | 12.22679 | 1755 ft | 145 kts | 165° |
| 2026-05-05 12:29 | 41.91922 | 12.23076 | 1554 ft | 141 kts | 164° |
| 2026-05-05 12:29 | 41.90985 | 12.23469 | 1371 ft | 140 kts | 163° |
| 2026-05-05 12:29 | 41.90053 | 12.23860 | 1188 ft | 139 kts | 163° |
| 2026-05-05 12:30 | 41.89168 | 12.24231 | 1014 ft | 129 kts | 164° |
| 2026-05-05 12:30 | 41.88325 | 12.24585 | 830 ft | 127 kts | 163° |
| 2026-05-05 12:30 | 41.87494 | 12.24936 | 675 ft | 123 kts | 164° |
| 2026-05-05 12:30 | 41.86684 | 12.25288 | 520 ft | 123 kts | 163° |
| 2026-05-05 12:31 | 41.85871 | 12.25636 | 359 ft | 123 kts | 164° |
| 2026-05-05 12:31 | 41.85041 | 12.25975 | 170 ft | 124 kts | 162° |
| 2026-05-05 12:31 | 41.84224 | 12.26309 | 32 ft | 121 kts | 161° |
| 2026-05-05 12:31 | 41.83529 | 12.26600 | 15 ft | 87 kts | 162° |
| 2026-05-05 12:32 | 41.83031 | 12.26806 | 12 ft | 65 kts | 163° |
| 2026-05-05 12:32 | 41.82672 | 12.26858 | 11 ft | 44 kts | 189° |
| 2026-05-05 12:32 | 41.82449 | 12.26794 | 11 ft | 29 kts | 192° |
| 2026-05-05 12:32 | 41.82273 | 12.26798 | 13 ft | 15 kts | 163° |
| 2026-05-05 12:33 | 41.82162 | 12.26846 | 11 ft | 21 kts | 162° |
| 2026-05-05 12:33 | 41.82015 | 12.26907 | 11 ft | 22 kts | 162° |
| 2026-05-05 12:33 | 41.81864 | 12.26971 | 11 ft | 23 kts | 162° |
| 2026-05-05 12:33 | 41.81714 | 12.27034 | 12 ft | 24 kts | 163° |
| 2026-05-05 12:34 | 41.81552 | 12.27102 | 12 ft | 25 kts | 162° |
| 2026-05-05 12:34 | 41.81392 | 12.27171 | 12 ft | 24 kts | 161° |
| 2026-05-05 12:34 | 41.81236 | 12.27232 | 12 ft | 24 kts | 165° |
| 2026-05-05 12:34 | 41.81080 | 12.27298 | 12 ft | 23 kts | 161° |
| 2026-05-05 12:35 | 41.80927 | 12.27352 | 13 ft | 22 kts | 178° |
| 2026-05-05 12:35 | 41.80769 | 12.27319 | 13 ft | 24 kts | 189° |
| 2026-05-05 12:35 | 41.80648 | 12.27196 | 13 ft | 19 kts | 249° |
| 2026-05-05 12:35 | 41.80602 | 12.27036 | 13 ft | 14 kts | 250° |
| 2026-05-05 12:36 | 41.80570 | 12.26918 | 14 ft | 13 kts | 250° |
| 2026-05-05 12:36 | 41.80540 | 12.26807 | 14 ft | 12 kts | 250° |
| 2026-05-05 12:36 | 41.80514 | 12.26712 | 16 ft | 10 kts | 250° |
| 2026-05-05 12:36 | 41.80489 | 12.26619 | 15 ft | 16 kts | 250° |
| 2026-05-05 12:37 | 41.80448 | 12.26471 | 15 ft | 16 kts | 249° |
| 2026-05-05 12:37 | 41.80408 | 12.26326 | 16 ft | 20 kts | 250° |
| 2026-05-05 12:37 | 41.80353 | 12.26140 | 15 ft | 22 kts | 239° |
| 2026-05-05 12:37 | 41.80237 | 12.26047 | 15 ft | 19 kts | 204° |
| 2026-05-05 12:38 | 41.80142 | 12.25989 | 14 ft | 11 kts | 206° |
| 2026-05-05 12:38 | 41.80051 | 12.25933 | 14 ft | 18 kts | 205° |
| 2026-05-05 12:38 | 41.79937 | 12.25863 | 14 ft | 16 kts | 205° |
| 2026-05-05 12:38 | 41.79834 | 12.25786 | 14 ft | 15 kts | 202° |
| 2026-05-05 12:39 | 41.79759 | 12.25740 | 14 ft | 13 kts | 205° |
| 2026-05-05 12:39 | 41.79692 | 12.25699 | 16 ft | 7 kts | 205° |
| 2026-05-05 12:39 | 41.79678 | 12.25651 | 14 ft | 5 kts | 285° |
| 2026-05-05 12:39 | 41.79682 | 12.25639 | 17 ft | 1 kts | 294° |
| 2026-05-05 12:40 | 41.79685 | 12.25629 | 15 ft | 2 kts | 294° |
| 2026-05-05 12:40 | 41.79688 | 12.25620 | 16 ft | 0 kts | 294° |